createdAt,value
2019-05-03T00:02:32.335Z,15.17
2019-05-03T00:05:15.460Z,13.53
2019-05-03T00:07:44.061Z,10.07
2019-05-03T00:10:13.096Z,11.37
2019-05-03T00:12:42.147Z,10.50
2019-05-03T00:15:33.380Z,11.23
2019-05-03T00:18:02.362Z,9.47
2019-05-03T00:20:32.641Z,7.63
2019-05-03T00:23:03.106Z,8.33
2019-05-03T00:25:32.607Z,7.47
2019-05-03T00:28:01.966Z,8.70
2019-05-03T00:30:32.052Z,10.97
2019-05-03T00:33:02.725Z,8.70
2019-05-03T00:35:49.709Z,8.67
2019-05-03T00:38:18.137Z,8.87
2019-05-03T00:40:46.634Z,8.10
2019-05-03T00:43:15.179Z,9.33
2019-05-03T00:45:43.608Z,8.87
2019-05-03T00:48:12.435Z,9.77
2019-05-03T00:50:42.564Z,9.77
2019-05-03T00:53:11.692Z,10.03
2019-05-03T00:55:41.961Z,8.93
2019-05-03T00:58:11.816Z,10.17
2019-05-03T01:00:41.771Z,12.67
2019-05-03T01:03:10.176Z,12.33
2019-05-03T01:05:38.713Z,10.17
2019-05-03T01:08:07.162Z,10.20
2019-05-03T01:10:35.641Z,12.67
2019-05-03T01:13:07.032Z,12.00
2019-05-03T01:16:03.606Z,13.13
2019-05-03T01:18:32.463Z,11.27
2019-05-03T01:21:02.253Z,13.03
2019-05-03T01:23:32.595Z,12.33
2019-05-03T01:26:02.462Z,13.50
2019-05-03T01:28:32.331Z,13.17
2019-05-03T01:31:02.549Z,14.73
2019-05-03T01:33:32.158Z,13.70
2019-05-03T01:36:02.517Z,13.17
2019-05-03T01:38:31.932Z,14.50
2019-05-03T01:41:01.748Z,16.40
2019-05-03T01:43:31.696Z,15.43
2019-05-03T01:46:02.501Z,13.73
2019-05-03T01:49:02.186Z,16.83
2019-05-03T01:51:48.633Z,17.00
2019-05-03T01:54:17.120Z,19.47
2019-05-03T01:56:56.783Z,16.33
2019-05-03T01:59:16.981Z,16.67
2019-05-03T02:02:02.262Z,13.57
2019-05-03T02:04:36.144Z,15.00
2019-05-03T02:07:04.856Z,16.90
2019-05-03T02:09:33.298Z,13.73
2019-05-03T02:12:22.060Z,15.93
2019-05-03T02:15:02.375Z,16.10
2019-05-03T02:17:28.753Z,14.63
2019-05-03T02:19:57.219Z,17.57
2019-05-03T02:22:25.761Z,16.40
2019-05-03T02:24:54.337Z,15.07
2019-05-03T02:27:22.798Z,17.73
2019-05-03T02:29:53.176Z,20.33
2019-05-03T02:32:23.207Z,16.20
2019-05-03T02:34:53.491Z,23.30
2019-05-03T02:37:22.551Z,15.13
2019-05-03T02:39:55.611Z,14.67
2019-05-03T02:42:26.510Z,16.30
2019-05-03T02:44:55.354Z,16.63
2019-05-03T02:47:49.919Z,16.80
2019-05-03T02:50:19.911Z,16.03
2019-05-03T02:52:48.373Z,18.83
2019-05-03T02:55:17.681Z,16.40
2019-05-03T02:57:46.801Z,19.13
2019-05-03T03:00:16.440Z,16.47
2019-05-03T03:02:46.293Z,20.57
2019-05-03T03:05:16.720Z,18.00
2019-05-03T03:07:47.938Z,15.60
2019-05-03T03:10:16.650Z,18.53
2019-05-03T03:12:49.743Z,15.60
2019-05-03T03:15:18.141Z,19.50
2019-05-03T03:17:48.156Z,15.47
2019-05-03T03:20:16.720Z,17.50
2019-05-03T03:22:48.728Z,18.23
2019-05-03T03:25:25.829Z,14.30
2019-05-03T03:27:59.052Z,18.50
2019-05-03T03:30:57.831Z,17.17
2019-05-03T03:33:28.182Z,18.17
2019-05-03T03:36:01.344Z,18.47
2019-05-03T03:38:26.826Z,20.40
2019-05-03T03:40:58.842Z,19.00
2019-05-03T03:43:27.544Z,21.63
2019-05-03T03:45:57.954Z,17.60
2019-05-03T03:48:27.517Z,17.27
2019-05-03T03:50:56.321Z,19.17
2019-05-03T03:53:26.449Z,19.20
2019-05-03T03:55:56.511Z,16.03
2019-05-03T03:58:27.143Z,16.90
2019-05-03T04:00:55.554Z,18.13
2019-05-03T04:03:25.986Z,18.17
2019-05-03T04:05:55.563Z,18.07
2019-05-03T04:08:25.268Z,17.47
2019-05-03T04:10:55.825Z,18.20
2019-05-03T04:13:25.543Z,18.37
2019-05-03T04:16:05.595Z,15.87
2019-05-03T04:18:40.258Z,17.83
2019-05-03T04:21:08.652Z,17.17
2019-05-03T04:23:37.712Z,17.97
2019-05-03T04:26:07.174Z,18.67
2019-05-03T04:28:37.332Z,18.73
2019-05-03T04:31:06.344Z,19.63
2019-05-03T04:33:35.851Z,16.53
2019-05-03T04:36:05.386Z,19.47
2019-05-03T04:38:35.423Z,18.93
2019-05-03T04:41:05.824Z,18.43
2019-05-03T04:43:35.612Z,19.67
2019-05-03T04:46:16.352Z,18.93
2019-05-03T04:48:45.120Z,18.60
2019-05-03T04:51:16.547Z,17.00
2019-05-03T04:53:48.080Z,17.50
2019-05-03T04:56:17.066Z,16.77
2019-05-03T04:58:45.942Z,17.47
2019-05-03T05:01:15.775Z,14.20
2019-05-03T05:03:45.671Z,18.07
2019-05-03T05:06:15.387Z,14.17
2019-05-03T05:08:46.173Z,13.70
2019-05-03T05:11:15.811Z,19.00
2019-05-03T05:13:45.738Z,13.80
2019-05-03T05:16:16.097Z,13.50
2019-05-03T05:18:49.695Z,14.63
2019-05-03T05:21:22.190Z,13.73
2019-05-03T05:23:58.431Z,13.57
2019-05-03T05:26:32.247Z,13.50
2019-05-03T05:29:05.314Z,13.20
2019-05-03T05:31:35.642Z,13.87
2019-05-03T05:34:05.499Z,12.67
2019-05-03T05:36:34.783Z,12.60
2019-05-03T05:39:05.250Z,11.17
2019-05-03T05:41:34.753Z,12.03
2019-05-03T05:44:05.271Z,11.03
2019-05-03T05:46:40.728Z,12.93
2019-05-03T05:49:11.835Z,10.10
2019-05-03T05:51:40.274Z,9.13
2019-05-03T05:54:08.701Z,11.60
2019-05-03T05:57:12.376Z,8.67
2019-05-03T05:59:46.722Z,10.97
2019-05-03T06:02:16.771Z,6.77
2019-05-03T06:04:45.284Z,8.00
2019-05-03T06:07:25.914Z,6.67
2019-05-03T06:10:24.790Z,9.43
2019-05-03T06:13:01.066Z,8.77
2019-05-03T06:15:45.293Z,6.93
2019-05-03T06:18:18.911Z,7.30
2019-05-03T06:20:54.713Z,6.13
2019-05-03T06:23:30.358Z,6.50
2019-05-03T06:25:59.525Z,7.83
2019-05-03T06:28:31.375Z,10.43
2019-05-03T06:31:09.373Z,8.57
2019-05-03T06:33:38.073Z,8.47
2019-05-03T06:36:06.567Z,8.30
2019-05-03T06:38:35.023Z,5.77
2019-05-03T06:41:04.707Z,7.67
2019-05-03T06:43:34.831Z,5.70
2019-05-03T06:46:05.174Z,5.60
2019-05-03T06:48:35.201Z,4.87
2019-05-03T06:51:08.752Z,5.17
2019-05-03T06:53:34.600Z,4.17
2019-05-03T06:56:04.514Z,5.63
2019-05-03T06:58:36.186Z,8.67
2019-05-03T07:01:17.886Z,7.57
2019-05-03T07:04:05.845Z,5.93
2019-05-03T07:06:55.156Z,6.17
2019-05-03T07:09:36.921Z,8.60
2019-05-03T07:12:05.318Z,4.50
2019-05-03T07:14:34.913Z,5.33
2019-05-03T07:17:05.605Z,6.40
2019-05-03T07:19:35.382Z,3.53
2019-05-03T07:22:05.061Z,4.20
2019-05-03T07:24:38.799Z,7.13
2019-05-03T07:27:05.408Z,4.93
2019-05-03T07:29:34.031Z,4.43
2019-05-03T07:32:02.407Z,5.33
2019-05-03T07:34:30.906Z,5.50
2019-05-03T07:37:00.463Z,4.33
2019-05-03T07:39:28.913Z,5.40
2019-05-03T07:41:57.526Z,6.97
2019-05-03T07:44:26.010Z,5.57
2019-05-03T07:46:55.484Z,5.93
2019-05-03T07:49:24.975Z,6.83
2019-05-03T07:51:55.310Z,5.67
2019-05-03T07:54:24.855Z,4.97
2019-05-03T07:57:01.339Z,3.87
2019-05-03T07:59:29.734Z,5.50
2019-05-03T08:01:59.213Z,5.13
2019-05-03T08:04:27.754Z,3.80
2019-05-03T08:06:56.256Z,3.83
2019-05-03T08:09:24.738Z,3.47
2019-05-03T08:11:54.733Z,3.30
2019-05-03T08:14:25.256Z,3.20
2019-05-03T08:16:54.834Z,4.07
2019-05-03T08:19:26.712Z,5.70
2019-05-03T08:21:56.486Z,3.13
2019-05-03T08:24:25.367Z,2.60
2019-05-03T08:26:55.757Z,3.90
2019-05-03T08:29:24.898Z,3.77
2019-05-03T08:32:11.293Z,2.57
2019-05-03T08:35:04.970Z,4.20
2019-05-03T08:37:54.679Z,3.50
2019-05-03T08:40:24.933Z,2.17
2019-05-03T08:42:54.965Z,4.43
2019-05-03T08:45:25.475Z,3.67
2019-05-03T08:47:55.377Z,3.60
2019-05-03T08:50:25.692Z,3.07
2019-05-03T08:52:55.742Z,5.77
2019-05-03T08:55:25.042Z,4.17
2019-05-03T08:57:55.124Z,1.83
2019-05-03T09:00:25.796Z,3.57
2019-05-03T09:02:54.879Z,2.33
2019-05-03T09:05:25.092Z,2.10
2019-05-03T09:07:54.918Z,2.17
2019-05-03T09:10:48.963Z,2.27
2019-05-03T09:13:20.892Z,2.03
2019-05-03T09:15:49.863Z,3.47
2019-05-03T09:18:18.298Z,2.40
2019-05-03T09:20:47.451Z,4.20
2019-05-03T09:23:15.858Z,2.17
2019-05-03T09:25:45.843Z,2.10
2019-05-03T09:28:15.043Z,3.00
2019-05-03T09:30:44.771Z,2.90
2019-05-03T09:33:15.151Z,4.20
2019-05-03T09:35:45.696Z,2.50
2019-05-03T09:38:15.052Z,4.00
2019-05-03T09:40:45.439Z,3.13
2019-05-03T09:43:15.064Z,1.60
2019-05-03T09:45:45.158Z,5.37
2019-05-03T09:48:15.099Z,2.23
2019-05-03T09:50:45.214Z,1.63
2019-05-03T09:53:16.642Z,2.70
2019-05-03T09:55:45.059Z,1.73
2019-05-03T09:58:15.335Z,2.40
2019-05-03T10:00:44.650Z,1.20
2019-05-03T10:03:13.231Z,3.70
2019-05-03T10:05:41.731Z,1.77
2019-05-03T10:08:10.342Z,2.80
2019-05-03T10:10:57.051Z,3.03
2019-05-03T10:13:27.246Z,1.90
2019-05-03T10:15:55.921Z,2.10
2019-05-03T10:18:25.481Z,2.63
2019-05-03T10:20:56.232Z,2.70
2019-05-03T10:23:40.093Z,3.00
2019-05-03T10:26:09.106Z,2.50
2019-05-03T10:28:37.751Z,2.20
2019-05-03T10:31:07.839Z,4.97
2019-05-03T10:33:46.662Z,3.08
2019-05-03T10:36:15.530Z,2.97
2019-05-03T10:38:45.952Z,2.27
2019-05-03T10:41:14.955Z,1.50
2019-05-03T10:43:45.105Z,1.30
2019-05-03T10:46:15.682Z,1.10
2019-05-03T10:48:45.141Z,2.23
2019-05-03T10:51:15.672Z,1.60
2019-05-03T10:53:46.706Z,1.92
2019-05-03T10:56:22.754Z,2.62
2019-05-03T10:58:54.798Z,3.47
2019-05-03T11:01:31.214Z,1.57
2019-05-03T11:03:59.916Z,3.70
2019-05-03T11:06:28.334Z,1.52
2019-05-03T11:08:56.731Z,2.40
2019-05-03T11:11:25.874Z,2.10
2019-05-03T11:13:54.566Z,2.07
2019-05-03T11:16:23.007Z,2.53
2019-05-03T11:18:51.561Z,2.03
2019-05-03T11:21:28.134Z,1.90
2019-05-03T11:23:50.212Z,4.00
2019-05-03T11:26:19.537Z,2.50
2019-05-03T11:28:48.266Z,1.92
2019-05-03T11:31:37.561Z,1.93
2019-05-03T11:34:08.591Z,1.98
2019-05-03T11:36:42.938Z,2.23
2019-05-03T11:39:11.423Z,3.47
2019-05-03T11:41:45.073Z,4.28
2019-05-03T11:44:31.469Z,1.35
2019-05-03T11:47:00.071Z,2.00
2019-05-03T11:49:28.539Z,2.33
2019-05-03T11:51:57.014Z,2.50
2019-05-03T11:54:25.918Z,1.97
2019-05-03T11:56:55.588Z,2.43
2019-05-03T11:59:25.391Z,3.13
2019-05-03T12:02:16.728Z,1.07
2019-05-03T12:04:45.883Z,2.43
2019-05-03T12:07:18.518Z,1.93
2019-05-03T12:09:46.968Z,1.53
2019-05-03T12:12:29.488Z,1.97
2019-05-03T12:14:57.759Z,2.17
2019-05-03T12:17:29.676Z,3.13
2019-05-03T12:19:59.534Z,1.10
2019-05-03T12:22:29.368Z,1.87
2019-05-03T12:24:58.705Z,1.33
2019-05-03T12:27:27.794Z,2.80
2019-05-03T12:29:59.362Z,3.37
2019-05-03T12:32:27.991Z,2.57
2019-05-03T12:34:56.573Z,1.60
2019-05-03T12:37:25.066Z,3.37
2019-05-03T12:39:55.625Z,3.33
2019-05-03T12:42:25.569Z,1.47
2019-05-03T12:44:55.143Z,2.73
2019-05-03T12:47:25.170Z,1.97
2019-05-03T12:49:55.791Z,1.53
2019-05-03T12:52:26.774Z,2.23
2019-05-03T12:54:55.194Z,1.27
2019-05-03T12:57:24.869Z,1.23
2019-05-03T13:00:18.765Z,1.65
2019-05-03T13:02:55.106Z,1.73
2019-05-03T13:05:24.899Z,2.37
2019-05-03T13:08:25.024Z,1.85
2019-05-03T13:10:55.649Z,1.93
2019-05-03T13:13:24.967Z,2.95
2019-05-03T13:15:55.011Z,1.73
2019-05-03T13:18:25.203Z,1.67
2019-05-03T13:20:55.797Z,1.10
2019-05-03T13:23:25.302Z,1.65
2019-05-03T13:25:54.066Z,1.57
2019-05-03T13:28:22.950Z,2.90
2019-05-03T13:30:51.426Z,2.43
2019-05-03T13:33:20.831Z,2.43
2019-05-03T13:35:49.794Z,2.05
2019-05-03T13:38:18.338Z,2.65
2019-05-03T13:40:46.836Z,2.60
2019-05-03T13:43:18.231Z,2.27
2019-05-03T13:45:46.761Z,3.05
2019-05-03T13:48:20.683Z,3.83
2019-05-03T13:50:46.064Z,2.55
2019-05-03T13:53:16.130Z,2.00
2019-05-03T13:55:44.799Z,1.80
2019-05-03T13:58:14.755Z,2.77
2019-05-03T14:00:45.350Z,1.47
2019-05-03T14:03:15.282Z,2.98
2019-05-03T14:05:44.608Z,1.67
2019-05-03T14:08:15.575Z,1.55
2019-05-03T14:10:45.533Z,1.30
2019-05-03T14:13:13.881Z,2.20
2019-05-03T14:15:42.483Z,2.00
2019-05-03T14:18:10.948Z,1.63
2019-05-03T14:20:58.861Z,1.82
2019-05-03T14:23:27.324Z,2.22
2019-05-03T14:25:55.858Z,2.10
2019-05-03T14:28:25.209Z,2.55
2019-05-03T14:30:54.833Z,1.50
2019-05-03T14:33:24.876Z,1.57
2019-05-03T14:35:54.713Z,2.07
2019-05-03T14:38:25.312Z,1.70
2019-05-03T14:40:55.095Z,2.02
2019-05-03T14:43:24.941Z,3.45
2019-05-03T14:45:55.079Z,2.13
2019-05-03T14:48:24.906Z,1.17
2019-05-03T14:50:54.973Z,2.27
2019-05-03T14:53:25.494Z,2.77
2019-05-03T14:56:09.421Z,4.00
2019-05-03T14:59:09.461Z,2.58
2019-05-03T15:01:50.304Z,2.10
2019-05-03T15:04:18.796Z,1.67
2019-05-03T15:06:47.291Z,1.93
2019-05-03T15:09:18.862Z,1.90
2019-05-03T15:11:46.074Z,12.20
2019-05-03T15:14:14.994Z,7.80
2019-05-03T15:16:45.052Z,8.93
2019-05-03T15:19:14.805Z,2.43
2019-05-03T15:21:45.277Z,6.23
2019-05-03T15:24:14.550Z,3.03
2019-05-03T15:26:44.783Z,2.93
2019-05-03T15:29:15.412Z,3.90
2019-05-03T15:31:44.750Z,2.53
2019-05-03T15:34:15.105Z,1.87
2019-05-03T15:36:45.052Z,2.47
2019-05-03T15:39:15.271Z,3.50
2019-05-03T15:41:44.941Z,2.70
2019-05-03T15:44:35.838Z,2.27
2019-05-03T15:47:10.526Z,1.90
2019-05-03T15:49:39.933Z,2.60
2019-05-03T15:52:08.328Z,3.47
2019-05-03T15:54:37.082Z,0.83
2019-05-03T15:57:06.810Z,2.37
2019-05-03T15:59:35.350Z,2.47
2019-05-03T16:02:04.629Z,1.97
2019-05-03T16:04:33.399Z,2.20
2019-05-03T16:07:04.821Z,2.47
2019-05-03T16:09:35.147Z,4.03
2019-05-03T16:12:05.132Z,2.70
2019-05-03T16:14:35.037Z,6.77
2019-05-03T16:17:04.480Z,5.33
2019-05-03T16:19:35.335Z,2.80
2019-05-03T16:22:04.880Z,1.87
2019-05-03T16:24:35.413Z,2.40
2019-05-03T16:27:21.073Z,6.77
2019-05-03T16:29:49.613Z,4.77
2019-05-03T16:32:18.121Z,2.47
2019-05-03T16:34:46.741Z,4.27
2019-05-03T16:37:15.214Z,5.17
2019-05-03T16:39:45.430Z,3.63
2019-05-03T16:42:15.393Z,3.63
2019-05-03T16:44:44.400Z,3.27
2019-05-03T16:47:15.528Z,2.10
2019-05-03T16:49:44.661Z,4.83
2019-05-03T16:52:14.678Z,1.47
2019-05-03T16:54:45.256Z,1.53
2019-05-03T16:57:15.251Z,1.80
2019-05-03T16:59:44.456Z,2.73
2019-05-03T17:02:30.783Z,2.30
2019-05-03T17:05:07.500Z,3.03
2019-05-03T17:07:55.518Z,3.00
2019-05-03T17:10:45.701Z,2.67
2019-05-03T17:13:14.794Z,2.80
2019-05-03T17:15:43.526Z,3.33
2019-05-03T17:18:14.711Z,3.23
2019-05-03T17:20:43.100Z,3.67
2019-05-03T17:23:11.668Z,5.63
2019-05-03T17:25:40.376Z,2.97
2019-05-03T17:28:09.938Z,4.40
2019-05-03T17:30:38.391Z,2.57
2019-05-03T17:33:07.031Z,4.83
2019-05-03T17:35:35.490Z,2.67
2019-05-03T17:38:07.282Z,5.43
2019-05-03T17:40:48.078Z,3.40
2019-05-03T17:43:29.436Z,6.73
2019-05-03T17:45:58.778Z,2.20
2019-05-03T17:48:27.312Z,2.40
2019-05-03T17:50:55.743Z,3.83
2019-05-03T17:53:46.514Z,3.13
2019-05-03T17:56:31.876Z,3.77
2019-05-03T17:59:06.529Z,2.67
2019-05-03T18:01:55.382Z,3.63
2019-05-03T18:04:31.581Z,6.73
2019-05-03T18:07:16.303Z,5.03
2019-05-03T18:09:44.951Z,4.97
2019-05-03T18:12:15.055Z,2.03
2019-05-03T18:14:45.038Z,3.73
2019-05-03T18:17:14.788Z,5.50
2019-05-03T18:19:47.837Z,4.00
2019-05-03T18:22:16.451Z,2.87
2019-05-03T18:24:45.570Z,3.47
2019-05-03T18:27:15.064Z,5.30
2019-05-03T18:29:44.943Z,4.80
2019-05-03T18:32:14.737Z,2.67
2019-05-03T18:34:45.378Z,5.40
2019-05-03T18:37:15.288Z,4.27
2019-05-03T18:39:45.233Z,4.17
2019-05-03T18:42:21.835Z,4.07
2019-05-03T18:44:55.261Z,3.80
2019-05-03T18:47:25.178Z,7.23
2019-05-03T18:49:54.997Z,7.20
2019-05-03T18:52:23.731Z,3.87
2019-05-03T18:54:52.211Z,2.87
2019-05-03T18:57:22.450Z,5.90
2019-05-03T18:59:51.014Z,6.63
2019-05-03T19:02:20.593Z,3.17
2019-05-03T19:04:51.145Z,4.97
2019-05-03T19:07:56.801Z,14.67
2019-05-03T19:10:47.445Z,2.90
2019-05-03T19:13:22.363Z,4.50
2019-05-03T19:15:51.955Z,4.87
2019-05-03T19:18:31.446Z,6.50
2019-05-03T19:21:00.530Z,3.07
2019-05-03T19:23:31.713Z,7.20
2019-05-03T19:26:19.123Z,6.13
2019-05-03T19:28:47.554Z,5.07
2019-05-03T19:31:17.031Z,9.00
2019-05-03T19:33:46.345Z,6.83
2019-05-03T19:36:14.811Z,4.63
2019-05-03T19:39:01.569Z,8.50
2019-05-03T19:41:31.806Z,5.23
2019-05-03T19:44:01.849Z,6.13
2019-05-03T19:46:30.318Z,4.97
2019-05-03T19:48:58.774Z,6.50
2019-05-03T19:51:27.298Z,4.50
2019-05-03T19:53:58.018Z,5.50
2019-05-03T19:56:26.453Z,4.57
2019-05-03T19:58:59.583Z,9.30
2019-05-03T20:01:50.411Z,5.70
2019-05-03T20:04:36.330Z,6.13
2019-05-03T20:07:25.347Z,8.40
2019-05-03T20:09:54.363Z,3.17
2019-05-03T20:12:24.622Z,5.70
2019-05-03T20:14:54.619Z,7.57
2019-05-03T20:17:23.181Z,4.50
2019-05-03T20:19:51.957Z,6.17
2019-05-03T20:22:20.924Z,4.87
2019-05-03T20:24:49.454Z,5.53
2019-05-03T20:27:17.996Z,6.17
2019-05-03T20:29:48.761Z,5.97
2019-05-03T20:32:17.191Z,6.20
2019-05-03T20:34:45.762Z,8.93
2019-05-03T20:37:15.934Z,7.27
2019-05-03T20:39:46.875Z,7.40
2019-05-03T20:42:35.733Z,4.40
2019-05-03T20:45:06.986Z,4.97
2019-05-03T20:47:42.951Z,4.37
2019-05-03T20:50:16.741Z,6.73
2019-05-03T20:52:46.874Z,6.67
2019-05-03T20:55:16.062Z,7.73
2019-05-03T20:57:46.019Z,6.80
2019-05-03T21:00:18.128Z,4.20
2019-05-03T21:02:53.877Z,3.80
2019-05-03T21:05:27.796Z,3.93
2019-05-03T21:07:50.252Z,5.13
2019-05-03T21:10:20.106Z,3.80
2019-05-03T21:12:48.673Z,5.57
2019-05-03T21:15:26.365Z,3.47
2019-05-03T21:18:15.187Z,8.83
2019-05-03T21:21:11.241Z,4.00
2019-05-03T21:23:44.897Z,4.77
2019-05-03T21:26:16.492Z,4.53
2019-05-03T21:28:44.962Z,6.03
2019-05-03T21:31:15.508Z,5.10
2019-05-03T21:33:44.534Z,5.77
2019-05-03T21:36:15.126Z,5.90
2019-05-03T21:38:44.900Z,9.60
2019-05-03T21:41:15.464Z,4.00
2019-05-03T21:43:45.109Z,4.00
2019-05-03T21:46:22.403Z,4.87
2019-05-03T21:49:01.058Z,6.10
2019-05-03T21:51:29.684Z,3.67
2019-05-03T21:53:58.208Z,6.90
2019-05-03T21:56:26.633Z,4.83
2019-05-03T21:58:55.408Z,5.07
2019-05-03T22:01:25.715Z,5.27
2019-05-03T22:03:54.251Z,3.97
2019-05-03T22:06:24.521Z,5.13
2019-05-03T22:08:53.039Z,4.67
2019-05-03T22:11:21.560Z,6.00
2019-05-03T22:13:54.271Z,4.33
2019-05-03T22:16:34.999Z,5.33
2019-05-03T22:19:03.758Z,4.27
2019-05-03T22:21:40.839Z,5.93
2019-05-03T22:24:32.794Z,3.40
2019-05-03T22:27:04.893Z,8.07
2019-05-03T22:29:35.616Z,4.97
2019-05-03T22:32:05.309Z,5.27
2019-05-03T22:34:34.879Z,4.60
2019-05-03T22:37:03.659Z,6.43
2019-05-03T22:39:33.148Z,5.93
2019-05-03T22:42:01.593Z,4.00
2019-05-03T22:44:30.068Z,6.90
2019-05-03T22:46:58.501Z,9.80
2019-05-03T22:49:26.938Z,5.00
2019-05-03T22:51:56.516Z,7.60
2019-05-03T22:54:25.042Z,5.47
2019-05-03T22:56:55.570Z,6.60
2019-05-03T22:59:25.240Z,4.13
2019-05-03T23:01:54.615Z,5.23
2019-05-03T23:04:25.071Z,7.33
2019-05-03T23:06:55.538Z,7.57
2019-05-03T23:09:24.884Z,5.07
2019-05-03T23:11:55.159Z,7.53
2019-05-03T23:14:25.452Z,5.37
2019-05-03T23:16:57.155Z,5.40
2019-05-03T23:19:25.706Z,7.07
2019-05-03T23:21:59.782Z,4.63
2019-05-03T23:24:29.511Z,6.60
2019-05-03T23:26:57.950Z,3.90
2019-05-03T23:29:26.381Z,6.50
2019-05-03T23:31:55.970Z,5.77
2019-05-03T23:34:24.796Z,5.57
2019-05-03T23:36:54.770Z,6.30
2019-05-03T23:39:24.915Z,5.20
2019-05-03T23:41:55.570Z,6.67
2019-05-03T23:44:24.479Z,7.03
2019-05-03T23:47:11.433Z,5.30
2019-05-03T23:49:40.683Z,5.40
2019-05-03T23:52:28.566Z,6.20
2019-05-03T23:54:58.456Z,4.47
2019-05-03T23:57:26.894Z,4.83
2019-05-03T23:59:56.893Z,5.57
